Terminal Aerodrome Forecast
Issued by NWS

Home | Current Version | Previous Version | Text Only | Print | Product List | Glossary On
Versions: 1 2 3 4 5 6 7 8 9 10 11 12 13
000
FTAK31 PAFA 181126
TAFAUN
TAF
PAUN 181126Z 1812/1912 09005KT P6SM SCT070
     FM182100 05012KT P6SM SCT050 BKN070
     FM190200 05009KT P6SM BKN050=

USA.gov is the U.S. government's official web portal to all federal, state and local government web resources and services.